createdAt,value
2023-04-02T00:47:10.926Z,25.00
2023-04-02T00:48:11.955Z,25.00
2023-04-02T00:49:11.961Z,25.00
2023-04-02T00:50:11.984Z,25.00
2023-04-02T00:51:11.994Z,25.00
2023-04-02T00:52:12.013Z,25.00
2023-04-02T00:53:12.405Z,0.00
2023-04-02T00:54:12.026Z,0.00
2023-04-02T00:55:12.905Z,0.00
2023-04-02T00:56:12.060Z,0.00
2023-04-02T00:57:12.447Z,0.00
2023-04-02T00:58:12.087Z,0.00
2023-04-02T00:59:12.128Z,0.00
2023-04-02T01:00:12.126Z,0.00
2023-04-02T01:01:12.944Z,0.00
2023-04-02T01:02:12.183Z,9.14
2023-04-02T01:03:12.265Z,26.60
2023-04-02T01:04:12.196Z,25.00
2023-04-02T01:05:12.248Z,25.00
2023-04-02T01:06:12.322Z,25.00
2023-04-02T01:07:12.398Z,25.48
2023-04-02T01:08:12.458Z,26.50
2023-04-02T01:09:12.520Z,25.00
2023-04-02T01:10:12.591Z,26.74
2023-04-02T01:11:12.667Z,25.54
2023-04-02T01:12:12.745Z,27.30
2023-04-02T01:13:12.806Z,27.93
2023-04-02T01:14:12.874Z,25.08
2023-04-02T01:15:12.962Z,25.00
2023-04-02T01:16:13.030Z,25.95
2023-04-02T01:17:14.115Z,25.94
2023-04-02T01:18:13.147Z,25.00
2023-04-02T01:19:13.229Z,26.94
2023-04-02T01:20:13.284Z,25.00
2023-04-02T01:21:13.344Z,25.40
2023-04-02T01:22:13.394Z,27.38
2023-04-02T01:23:14.120Z,27.27
2023-04-02T01:24:13.525Z,28.62
2023-04-02T01:25:13.600Z,28.31
2023-04-02T01:26:13.655Z,25.15
2023-04-02T01:27:14.074Z,26.34
2023-04-02T01:28:14.131Z,25.00
2023-04-02T01:29:14.177Z,27.25
2023-04-02T01:30:14.138Z,26.72
2023-04-02T01:32:00.736Z,25.00
2023-04-02T01:33:02.154Z,25.00
2023-04-02T01:34:02.092Z,25.00
2023-04-02T01:35:02.137Z,25.00
2023-04-02T01:36:02.140Z,25.00
2023-04-02T01:37:02.111Z,25.00
2023-04-02T01:38:02.118Z,27.43
2023-04-02T01:39:02.124Z,26.59
2023-04-02T01:40:02.120Z,26.52
2023-04-02T01:41:02.121Z,28.52
2023-04-02T01:42:02.116Z,25.76
2023-04-02T01:43:02.119Z,25.00
2023-04-02T01:44:02.122Z,26.45
2023-04-02T01:45:02.130Z,26.32
2023-04-02T01:46:02.117Z,26.94
2023-04-02T01:47:02.484Z,27.58
2023-04-02T01:48:02.191Z,27.38
2023-04-02T01:49:02.128Z,27.20
2023-04-02T01:50:02.132Z,25.37
2023-04-02T01:51:02.142Z,26.49
2023-04-02T01:52:02.117Z,27.44
2023-04-02T01:53:02.488Z,25.40
2023-04-02T01:54:02.137Z,27.75
2023-04-02T01:55:02.161Z,26.24
2023-04-02T01:56:03.003Z,25.42
2023-04-02T01:57:09.035Z,27.26
2023-04-02T01:58:02.112Z,27.93
2023-04-02T01:59:02.123Z,28.36
2023-04-02T02:00:02.492Z,28.86
2023-04-02T02:01:02.170Z,27.77
2023-04-02T02:02:02.119Z,30.11
2023-04-02T02:03:02.150Z,26.68
2023-04-02T02:04:02.127Z,27.99
2023-04-02T02:05:02.109Z,27.08
2023-04-02T02:06:02.177Z,26.48
2023-04-02T02:07:03.028Z,28.08
2023-04-02T02:08:02.115Z,26.83
2023-04-02T02:09:02.174Z,28.70
2023-04-02T02:10:02.252Z,26.53
2023-04-02T02:11:03.009Z,28.62
2023-04-02T02:12:02.345Z,26.91
2023-04-02T02:13:02.407Z,28.28
2023-04-02T02:14:02.462Z,27.08
2023-04-02T02:15:03.017Z,26.10
2023-04-02T02:16:02.612Z,27.76
2023-04-02T02:17:03.017Z,27.00
2023-04-02T02:18:03.018Z,29.88
2023-04-02T02:19:03.028Z,26.55
2023-04-02T02:20:03.009Z,25.57
2023-04-02T02:21:03.014Z,28.50
2023-04-02T02:22:03.030Z,28.01
2023-04-02T02:23:03.045Z,27.96
2023-04-02T02:24:03.034Z,25.94
2023-04-02T02:25:03.090Z,26.97
2023-04-02T02:26:03.173Z,28.14
2023-04-02T02:27:03.239Z,26.85
2023-04-02T02:28:03.299Z,26.20
2023-04-02T02:29:03.360Z,31.01
2023-04-02T02:30:03.413Z,27.75
2023-04-02T02:31:03.486Z,25.33
2023-04-02T02:32:04.102Z,28.01
2023-04-02T02:33:03.626Z,28.37
2023-04-02T02:34:03.662Z,27.49
2023-04-02T02:35:03.738Z,26.52
2023-04-02T02:36:03.867Z,30.21
2023-04-02T02:37:03.850Z,28.31
2023-04-02T02:38:03.919Z,27.49
2023-04-02T02:39:03.990Z,28.02
2023-04-02T02:40:04.042Z,27.60
2023-04-02T02:41:07.014Z,29.01
2023-04-02T02:42:04.080Z,32.25
2023-04-02T02:43:04.093Z,28.90
2023-04-02T02:44:04.076Z,28.70
2023-04-02T02:45:07.008Z,27.24
2023-04-02T02:46:04.128Z,27.54
2023-04-02T02:47:05.006Z,27.52
2023-04-02T02:48:04.136Z,29.09
2023-04-02T02:49:04.057Z,29.08
2023-04-02T02:50:07.008Z,28.64
2023-04-02T02:51:04.051Z,27.50
2023-04-02T02:52:05.005Z,27.47
2023-04-02T02:53:04.058Z,28.16
2023-04-02T02:54:04.080Z,28.83
2023-04-02T02:55:04.091Z,30.02
2023-04-02T02:56:04.069Z,28.45
2023-04-02T02:57:04.163Z,28.63
2023-04-02T02:58:04.074Z,28.48
2023-04-02T02:59:04.083Z,28.37
2023-04-02T03:00:04.080Z,27.93
2023-04-02T03:01:04.166Z,29.35
2023-04-02T03:02:04.095Z,28.57
2023-04-02T03:03:04.361Z,27.75
2023-04-02T03:04:04.356Z,27.39
2023-04-02T03:05:04.279Z,28.83
2023-04-02T03:06:04.341Z,29.01
2023-04-02T03:07:04.398Z,27.78
2023-04-02T03:08:05.014Z,28.19
2023-04-02T03:09:04.560Z,28.85
2023-04-02T03:10:04.573Z,28.58
2023-04-02T03:11:04.669Z,28.51
2023-04-02T03:12:04.698Z,28.94
2023-04-02T03:13:04.756Z,29.38
2023-04-02T03:14:05.020Z,27.56
2023-04-02T03:15:04.875Z,27.32
2023-04-02T03:16:05.543Z,29.29
2023-04-02T03:17:04.992Z,28.86
2023-04-02T03:18:05.070Z,28.44
2023-04-02T03:19:05.110Z,28.33
2023-04-02T03:20:05.168Z,28.57
2023-04-02T03:21:05.531Z,29.54
2023-04-02T03:22:05.303Z,30.33
2023-04-02T03:23:05.348Z,28.27
2023-04-02T03:24:05.413Z,27.56
2023-04-02T03:25:05.480Z,28.17
2023-04-02T03:26:05.535Z,28.73
2023-04-02T03:27:05.656Z,29.03
2023-04-02T03:28:05.672Z,28.45
2023-04-02T03:29:06.522Z,30.33
2023-04-02T03:30:05.791Z,29.43
2023-04-02T03:31:05.868Z,29.01
2023-04-02T03:32:05.878Z,29.15
2023-04-02T03:33:06.035Z,28.99
2023-04-02T03:34:05.993Z,29.45
2023-04-02T03:35:06.053Z,29.24
2023-04-02T03:36:06.121Z,29.09
2023-04-02T03:37:06.164Z,28.73
2023-04-02T03:38:06.220Z,28.13
2023-04-02T03:39:06.286Z,27.18
2023-04-02T03:40:07.028Z,29.33
2023-04-02T03:41:06.424Z,28.87
2023-04-02T03:42:06.449Z,29.01
2023-04-02T03:43:06.539Z,28.37
2023-04-02T03:44:07.536Z,29.53
2023-04-02T03:45:06.624Z,27.78
2023-04-02T03:46:07.542Z,28.96
2023-04-02T03:47:06.734Z,29.60
2023-04-02T03:48:06.801Z,27.91
2023-04-02T03:49:06.854Z,29.42
2023-04-02T03:50:06.909Z,27.50
2023-04-02T03:51:07.034Z,28.16
2023-04-02T03:52:07.025Z,28.99
2023-04-02T03:53:07.070Z,29.20
2023-04-02T03:54:07.136Z,29.95
2023-04-02T03:55:07.188Z,28.38
2023-04-02T03:56:07.251Z,28.10
2023-04-02T03:57:07.334Z,29.53
2023-04-02T03:58:07.366Z,28.37
2023-04-02T03:59:10.057Z,28.65
2023-04-02T04:00:07.467Z,29.65
2023-04-02T04:01:07.460Z,31.89
2023-04-02T04:02:07.455Z,29.13
2023-04-02T04:03:07.464Z,28.05
2023-04-02T04:04:07.477Z,29.46
2023-04-02T04:05:07.456Z,30.72
2023-04-02T04:06:07.462Z,28.98
2023-04-02T04:07:07.475Z,28.62
2023-04-02T04:08:07.471Z,29.22
2023-04-02T04:09:07.508Z,27.01
2023-04-02T04:10:07.473Z,30.09
2023-04-02T04:11:07.536Z,28.86
2023-04-02T04:12:07.482Z,27.78
2023-04-02T04:13:07.482Z,28.43
2023-04-02T04:14:07.514Z,29.80
2023-04-02T04:15:07.508Z,30.49
2023-04-02T04:16:07.513Z,28.37
2023-04-02T04:17:07.496Z,28.70
2023-04-02T04:18:07.600Z,29.26
2023-04-02T04:19:07.483Z,29.20
2023-04-02T04:20:07.489Z,29.19
2023-04-02T04:21:07.491Z,28.15
2023-04-02T04:22:07.502Z,29.44
2023-04-02T04:23:07.496Z,26.99
2023-04-02T04:24:07.500Z,29.40
2023-04-02T04:25:07.527Z,31.09
2023-04-02T04:26:07.503Z,28.06
2023-04-02T04:27:07.561Z,29.53
2023-04-02T04:28:07.636Z,26.28
2023-04-02T04:29:07.671Z,29.44
2023-04-02T04:30:08.082Z,27.01
2023-04-02T04:31:08.145Z,29.70
2023-04-02T04:32:08.155Z,28.18
2023-04-02T04:33:08.157Z,28.03
2023-04-02T04:34:08.114Z,28.05
2023-04-02T04:35:08.121Z,29.06
2023-04-02T04:36:08.152Z,28.74
2023-04-02T04:37:08.144Z,26.52
2023-04-02T04:38:08.203Z,29.32
2023-04-02T04:39:08.276Z,28.65
2023-04-02T04:40:08.309Z,29.08
2023-04-02T04:41:08.373Z,29.27
2023-04-02T04:42:08.442Z,29.45
2023-04-02T04:43:08.493Z,29.61
2023-04-02T04:44:08.547Z,26.25
2023-04-02T04:45:08.602Z,30.19
2023-04-02T04:46:09.103Z,27.25
2023-04-02T04:47:09.073Z,27.26
2023-04-02T04:48:09.065Z,27.52
2023-04-02T04:49:09.042Z,27.37
2023-04-02T04:50:09.055Z,28.80
2023-04-02T04:51:09.050Z,29.34
2023-04-02T04:52:09.052Z,28.12
2023-04-02T04:53:09.097Z,29.21
2023-04-02T04:54:09.143Z,28.40
2023-04-02T04:55:09.193Z,28.79
2023-04-02T04:56:18.893Z,27.82
2023-04-02T04:57:09.292Z,28.06
2023-04-02T04:58:09.252Z,28.73
2023-04-02T04:59:09.249Z,29.57
2023-04-02T05:00:09.262Z,29.97
2023-04-02T05:01:09.317Z,26.89
2023-04-02T05:02:09.249Z,27.83
2023-04-02T05:03:09.286Z,30.32
2023-04-02T05:04:09.269Z,27.84
2023-04-02T05:05:09.247Z,29.06
2023-04-02T05:06:09.253Z,28.31
2023-04-02T05:07:09.263Z,28.93
2023-04-02T05:08:09.251Z,29.52
2023-04-02T05:09:09.223Z,28.37
2023-04-02T05:10:09.218Z,25.60
2023-04-02T05:11:09.209Z,27.97
2023-04-02T05:12:09.214Z,27.09
2023-04-02T05:13:09.216Z,31.15
2023-04-02T05:14:09.224Z,29.13
2023-04-02T05:15:09.220Z,27.52
2023-04-02T05:16:09.254Z,27.46
2023-04-02T05:17:09.216Z,26.15
2023-04-02T05:18:09.216Z,26.73
2023-04-02T05:19:09.251Z,28.54
2023-04-02T05:20:09.213Z,29.74
2023-04-02T05:21:09.216Z,30.52
2023-04-02T05:22:09.263Z,28.48
2023-04-02T05:23:09.362Z,28.04
2023-04-02T05:24:09.399Z,28.33
2023-04-02T05:25:09.454Z,26.10
2023-04-02T05:26:09.520Z,28.16
2023-04-02T05:27:09.581Z,27.69
2023-04-02T05:28:09.653Z,26.22
2023-04-02T05:29:09.690Z,25.22
2023-04-02T05:30:10.124Z,27.18
2023-04-02T05:31:10.618Z,27.73
2023-04-02T05:32:10.570Z,26.81
2023-04-02T05:33:09.928Z,25.82
2023-04-02T05:34:09.957Z,26.33
2023-04-02T05:35:10.019Z,29.40
2023-04-02T05:36:10.096Z,31.98
2023-04-02T05:37:10.102Z,28.19
2023-04-02T05:38:10.186Z,25.96
2023-04-02T05:39:10.226Z,26.63
2023-04-02T05:40:10.287Z,28.63
2023-04-02T05:41:10.350Z,27.37
2023-04-02T05:42:10.402Z,25.11
2023-04-02T05:43:10.512Z,30.48
2023-04-02T05:44:10.528Z,26.14
2023-04-02T05:45:10.609Z,29.68
2023-04-02T05:46:10.679Z,29.60
2023-04-02T05:47:10.711Z,28.30
2023-04-02T05:48:10.774Z,30.60
2023-04-02T05:49:10.847Z,27.31
2023-04-02T05:50:10.908Z,28.13
2023-04-02T05:51:10.996Z,30.07
2023-04-02T05:52:11.050Z,26.44
2023-04-02T05:53:11.087Z,27.11
2023-04-02T05:54:11.133Z,26.44
2023-04-02T05:55:11.194Z,29.83
2023-04-02T05:56:11.257Z,27.65
2023-04-02T05:57:12.128Z,25.00
2023-04-02T05:58:33.920Z,25.65
2023-04-02T05:59:11.408Z,26.06
2023-04-02T06:00:11.376Z,26.81
2023-04-02T06:01:11.429Z,26.40
2023-04-02T06:02:11.433Z,28.18
2023-04-02T06:03:11.470Z,26.98
2023-04-02T06:04:11.411Z,29.42
2023-04-02T06:05:11.387Z,28.45
2023-04-02T06:06:13.263Z,28.11
2023-04-02T06:07:11.390Z,28.39
2023-04-02T06:08:11.431Z,28.63
2023-04-02T06:09:11.357Z,28.64
2023-04-02T06:10:11.362Z,27.19
2023-04-02T06:11:11.363Z,29.45
2023-04-02T06:12:11.359Z,28.08
2023-04-02T06:13:11.375Z,29.54
2023-04-02T06:14:11.355Z,29.34
2023-04-02T06:15:11.359Z,28.26
2023-04-02T06:16:11.383Z,28.88
2023-04-02T06:17:11.347Z,30.08
2023-04-02T06:18:11.342Z,30.14
2023-04-02T06:19:11.590Z,28.96
2023-04-02T06:20:11.334Z,27.17
2023-04-02T06:21:11.337Z,28.35
2023-04-02T06:22:11.328Z,29.59
2023-04-02T06:23:11.352Z,27.58
2023-04-02T06:24:11.316Z,28.07
2023-04-02T06:25:11.312Z,29.93
2023-04-02T06:26:11.307Z,30.16
2023-04-02T06:27:11.299Z,26.83
2023-04-02T06:28:11.592Z,29.00
2023-04-02T06:29:11.287Z,29.80
2023-04-02T06:30:11.315Z,29.75
2023-04-02T06:31:11.425Z,29.97
2023-04-02T06:32:11.419Z,29.49
2023-04-02T06:33:11.460Z,31.10
2023-04-02T06:34:11.497Z,31.10
2023-04-02T06:35:11.533Z,27.54
2023-04-02T06:36:11.609Z,28.47
2023-04-02T06:37:11.617Z,31.04
2023-04-02T06:38:11.657Z,30.36
2023-04-02T06:39:11.744Z,26.67
2023-04-02T06:40:12.594Z,28.94
2023-04-02T06:41:14.614Z,28.96
2023-04-02T06:42:12.604Z,33.64
2023-04-02T06:43:11.814Z,29.17
2023-04-02T06:44:11.792Z,31.21
2023-04-02T06:45:11.782Z,32.05
2023-04-02T06:46:11.963Z,32.06
2023-04-02T06:47:14.598Z,29.97
2023-04-02T06:48:11.791Z,30.14
2023-04-02T06:49:11.767Z,30.51
2023-04-02T06:50:11.751Z,30.34
2023-04-02T06:51:11.741Z,29.79
2023-04-02T06:52:11.736Z,29.51
2023-04-02T06:53:11.738Z,30.75
2023-04-02T06:54:11.739Z,31.93
2023-04-02T06:55:18.711Z,32.92
2023-04-02T06:56:11.713Z,33.35
2023-04-02T06:57:11.749Z,33.79
2023-04-02T06:58:11.702Z,34.37
2023-04-02T06:59:11.730Z,34.94
2023-04-02T07:00:11.696Z,33.15
2023-04-02T07:01:12.145Z,30.83
2023-04-02T07:02:11.685Z,31.62
2023-04-02T07:03:11.710Z,32.00
2023-04-02T07:04:12.114Z,30.14
2023-04-02T07:05:11.950Z,32.47
2023-04-02T07:06:12.608Z,31.71
2023-04-02T07:07:11.788Z,30.82
2023-04-02T07:08:12.601Z,32.40
2023-04-02T07:09:11.871Z,32.86
2023-04-02T07:10:11.926Z,33.62
2023-04-02T07:11:11.983Z,30.41
2023-04-02T07:12:12.108Z,32.34
2023-04-02T07:13:12.059Z,30.61
2023-04-02T07:14:13.105Z,29.28
2023-04-02T07:15:12.174Z,30.25
2023-04-02T07:16:13.151Z,32.31
2023-04-02T07:17:12.256Z,33.12
2023-04-02T07:18:12.300Z,29.85
2023-04-02T07:19:12.351Z,31.90
2023-04-02T07:20:12.395Z,30.63
2023-04-02T07:21:12.614Z,31.08
2023-04-02T07:22:12.464Z,29.28
2023-04-02T07:23:12.527Z,29.50
2023-04-02T07:24:12.613Z,31.31
2023-04-02T07:25:12.639Z,32.61
2023-04-02T07:26:12.706Z,30.91
2023-04-02T07:27:12.782Z,32.48
2023-04-02T07:28:12.814Z,31.88
2023-04-02T07:29:13.144Z,33.02
2023-04-02T07:30:12.917Z,31.82
2023-04-02T07:31:13.065Z,30.45
2023-04-02T07:32:19.638Z,33.87
2023-04-02T07:33:13.160Z,34.29
2023-04-02T07:34:13.110Z,34.65
2023-04-02T07:35:13.606Z,33.64
2023-04-02T07:36:13.062Z,30.70
2023-04-02T07:37:13.041Z,31.08
2023-04-02T07:38:13.025Z,30.80
2023-04-02T07:39:13.022Z,34.33
2023-04-02T07:40:13.019Z,34.05
2023-04-02T07:41:13.023Z,30.05
2023-04-02T07:42:13.612Z,32.55
2023-04-02T07:43:13.051Z,30.66
2023-04-02T07:44:13.613Z,32.70
2023-04-02T07:45:13.014Z,31.97
2023-04-02T07:46:13.038Z,31.85
2023-04-02T07:47:13.019Z,32.31
2023-04-02T07:48:13.138Z,30.12
2023-04-02T07:49:13.076Z,33.52
2023-04-02T07:50:14.139Z,30.92
2023-04-02T07:51:13.190Z,34.91
2023-04-02T07:52:13.258Z,33.46
2023-04-02T07:53:13.323Z,32.44
2023-04-02T07:54:13.388Z,33.41
2023-04-02T07:55:14.151Z,34.44
2023-04-02T07:56:14.148Z,31.90
2023-04-02T07:57:13.583Z,32.98
2023-04-02T07:58:13.644Z,32.06
2023-04-02T07:59:13.731Z,31.28
2023-04-02T08:00:14.113Z,31.76
2023-04-02T08:01:14.151Z,31.51
2023-04-02T08:02:14.249Z,32.46
2023-04-02T08:03:14.215Z,35.23
2023-04-02T08:04:14.179Z,31.63
2023-04-02T08:05:14.162Z,33.12
2023-04-02T08:06:14.149Z,29.28
2023-04-02T08:07:14.157Z,29.28
2023-04-02T08:08:14.278Z,33.04
2023-04-02T08:09:14.286Z,31.79
2023-04-02T08:10:14.345Z,32.37
2023-04-02T08:11:14.414Z,33.80
2023-04-02T08:12:15.186Z,30.81
2023-04-02T08:13:14.629Z,31.47
2023-04-02T08:14:14.607Z,33.89
2023-04-02T08:15:14.673Z,33.90
2023-04-02T08:16:14.836Z,31.04
2023-04-02T08:17:15.136Z,34.80
2023-04-02T08:18:15.192Z,31.40
2023-04-02T08:19:15.208Z,32.19
2023-04-02T08:20:15.192Z,35.12
2023-04-02T08:21:16.458Z,30.95
2023-04-02T08:22:18.131Z,35.65
2023-04-02T08:23:15.297Z,37.40
2023-04-02T08:24:15.635Z,36.72
2023-04-02T08:25:15.266Z,33.52
2023-04-02T08:26:15.253Z,33.04
2023-04-02T08:27:15.265Z,31.57
2023-04-02T08:28:15.253Z,35.77
2023-04-02T08:29:15.252Z,32.76
2023-04-02T08:30:16.134Z,35.35
2023-04-02T08:31:15.342Z,32.34
2023-04-02T08:32:15.266Z,34.55
2023-04-02T08:33:15.231Z,34.06
2023-04-02T08:34:15.642Z,32.89
2023-04-02T08:35:15.242Z,34.71
2023-04-02T08:36:15.303Z,35.11
2023-04-02T08:37:15.244Z,35.11
2023-04-02T08:38:15.246Z,35.12
2023-04-02T08:39:15.274Z,34.12
2023-04-02T08:40:15.251Z,34.76
2023-04-02T08:41:15.254Z,32.31
2023-04-02T08:42:16.136Z,31.79
2023-04-02T08:43:16.138Z,34.54
2023-04-02T08:44:15.427Z,34.46
2023-04-02T08:46:15.517Z,32.92
2023-04-02T08:47:15.552Z,33.71
2023-04-02T08:48:15.480Z,33.65
2023-04-02T08:49:15.480Z,34.94
2023-04-02T08:50:15.471Z,35.97
2023-04-02T08:51:15.476Z,34.75
2023-04-02T08:52:15.472Z,34.78
2023-04-02T08:53:15.472Z,34.93
2023-04-02T08:54:15.476Z,34.17
2023-04-02T08:55:15.464Z,35.58
2023-04-02T08:56:15.458Z,32.99
2023-04-02T08:57:15.459Z,34.89
2023-04-02T08:58:15.458Z,36.77
2023-04-02T08:59:15.446Z,34.82
2023-04-02T09:00:15.453Z,36.47
2023-04-02T09:01:15.466Z,34.21
2023-04-02T09:02:15.648Z,34.47
2023-04-02T09:03:18.175Z,36.10
2023-04-02T09:04:15.490Z,36.13
2023-04-02T09:05:18.152Z,36.36
2023-04-02T09:06:16.694Z,36.40
2023-04-02T09:07:16.148Z,36.41
2023-04-02T09:08:22.145Z,36.58
2023-04-02T09:09:15.441Z,36.48
2023-04-02T09:10:15.426Z,37.02
2023-04-02T09:11:15.648Z,36.83
2023-04-02T09:12:18.144Z,36.62
2023-04-02T09:13:15.402Z,36.28
2023-04-02T09:14:15.400Z,36.47
2023-04-02T09:15:15.404Z,36.17
2023-04-02T09:16:15.456Z,37.10
2023-04-02T09:17:15.399Z,36.52
2023-04-02T09:18:15.443Z,36.74
2023-04-02T09:19:15.412Z,36.03
2023-04-02T09:20:15.384Z,36.84
2023-04-02T09:21:15.386Z,36.19
2023-04-02T09:22:15.390Z,35.03
2023-04-02T09:23:15.384Z,39.54
2023-04-02T09:24:15.377Z,35.05
2023-04-02T09:25:15.411Z,36.89
2023-04-02T09:26:15.370Z,36.74
2023-04-02T09:27:15.364Z,37.20
2023-04-02T09:28:15.353Z,37.87
2023-04-02T09:29:15.669Z,36.62
2023-04-02T09:30:15.349Z,36.47
2023-04-02T09:31:16.207Z,34.97
2023-04-02T09:32:15.333Z,34.42
2023-04-02T09:33:15.329Z,34.13
2023-04-02T09:34:15.662Z,35.99
2023-04-02T09:35:25.280Z,35.10
2023-04-02T09:36:16.129Z,35.41
2023-04-02T09:37:15.303Z,35.46
2023-04-02T09:38:15.324Z,36.03
2023-04-02T09:39:15.346Z,36.41
2023-04-02T09:40:15.348Z,37.76
2023-04-02T09:41:15.284Z,36.80
2023-04-02T09:42:15.283Z,37.27
2023-04-02T09:43:15.281Z,35.74
2023-04-02T09:44:15.284Z,38.26
2023-04-02T09:45:15.274Z,37.34
2023-04-02T09:46:15.288Z,37.11
2023-04-02T09:47:15.274Z,35.81
2023-04-02T09:48:18.181Z,36.32
2023-04-02T09:49:15.327Z,43.04
2023-04-02T09:50:16.165Z,38.65
2023-04-02T09:51:15.368Z,39.34
2023-04-02T09:52:15.307Z,36.50
2023-04-02T09:53:15.300Z,38.01
2023-04-02T09:54:15.294Z,35.77
2023-04-02T09:55:15.292Z,39.29
2023-04-02T09:56:15.289Z,36.55
2023-04-02T09:57:15.301Z,38.29
2023-04-02T09:58:15.300Z,36.77
2023-04-02T09:59:15.695Z,36.57
2023-04-02T10:00:29.674Z,37.42
2023-04-02T10:01:16.264Z,37.66
2023-04-02T10:02:15.295Z,37.73
2023-04-02T10:03:15.287Z,38.46
2023-04-02T10:04:18.214Z,38.03
2023-04-02T10:05:18.797Z,37.63
2023-04-02T10:06:15.278Z,37.82
2023-04-02T10:07:15.292Z,38.50
2023-04-02T10:08:16.166Z,38.74
2023-04-02T10:09:15.266Z,41.71
2023-04-02T10:10:15.271Z,41.58
2023-04-02T10:11:18.166Z,42.68
2023-04-02T10:12:15.264Z,42.71
2023-04-02T10:13:16.170Z,42.77
2023-04-02T10:14:15.272Z,42.94
2023-04-02T10:15:15.271Z,40.65
2023-04-02T10:16:15.292Z,40.81
2023-04-02T10:17:15.385Z,41.59
2023-04-02T10:18:15.263Z,42.64
2023-04-02T10:19:15.268Z,42.85
2023-04-02T10:20:15.261Z,42.06
2023-04-02T10:21:18.179Z,42.15
2023-04-02T10:22:15.261Z,42.20
2023-04-02T10:23:15.277Z,42.21
2023-04-02T10:24:15.327Z,41.80
2023-04-02T10:25:15.238Z,40.59
2023-04-02T10:26:15.231Z,41.67
2023-04-02T10:27:16.174Z,39.78
2023-04-02T10:28:15.243Z,41.13
2023-04-02T10:29:15.241Z,42.45
2023-04-02T10:30:15.238Z,42.00
2023-04-02T10:31:15.277Z,37.89
2023-04-02T10:32:15.239Z,40.00
2023-04-02T10:33:15.676Z,41.15
2023-04-02T10:34:15.263Z,39.42
2023-04-02T10:35:15.240Z,39.22
2023-04-02T10:36:15.296Z,40.47
2023-04-02T10:37:15.244Z,39.74
2023-04-02T10:38:15.683Z,40.28
2023-04-02T10:39:16.205Z,40.25
2023-04-02T10:40:15.329Z,39.32
2023-04-02T10:41:15.380Z,41.46
2023-04-02T10:42:15.686Z,40.80
2023-04-02T10:43:15.485Z,40.83
2023-04-02T10:44:20.130Z,41.11
2023-04-02T10:45:15.537Z,41.31
2023-04-02T10:46:15.609Z,41.88
2023-04-02T10:47:15.534Z,41.32
2023-04-02T10:48:15.523Z,41.29
2023-04-02T10:49:15.577Z,41.28
2023-04-02T10:50:15.534Z,42.12
2023-04-02T10:51:15.503Z,40.84
2023-04-02T10:52:15.504Z,40.28
2023-04-02T10:53:15.493Z,42.19
2023-04-02T10:54:15.557Z,40.20
2023-04-02T10:55:15.513Z,41.53
2023-04-02T10:56:15.476Z,40.75
2023-04-02T10:57:15.477Z,40.87
2023-04-02T10:58:15.466Z,41.06
2023-04-02T10:59:15.465Z,42.61
2023-04-02T11:00:16.215Z,41.12
2023-04-02T11:01:15.479Z,41.53
2023-04-02T11:02:15.513Z,38.64
2023-04-02T11:03:15.526Z,40.61
2023-04-02T11:04:15.449Z,41.30
2023-04-02T11:05:15.449Z,42.06
2023-04-02T11:06:16.189Z,40.95
2023-04-02T11:07:15.425Z,40.65
2023-04-02T11:08:15.428Z,41.83
2023-04-02T11:09:15.414Z,40.16
2023-04-02T11:10:15.413Z,39.28
2023-04-02T11:11:15.486Z,41.68
2023-04-02T11:12:15.513Z,42.31
2023-04-02T11:13:15.578Z,40.06
2023-04-02T11:14:15.693Z,39.54
2023-04-02T11:15:15.683Z,41.33
2023-04-02T11:16:15.796Z,41.36
2023-04-02T11:17:15.776Z,41.20
2023-04-02T11:18:15.839Z,39.75
2023-04-02T11:19:15.896Z,41.40
2023-04-02T11:20:15.934Z,41.36
2023-04-02T11:21:16.023Z,40.93
2023-04-02T11:22:16.722Z,40.71
2023-04-02T11:23:16.103Z,41.72
2023-04-02T11:24:16.151Z,40.30
2023-04-02T11:25:16.213Z,41.99
2023-04-02T11:26:16.268Z,40.21
2023-04-02T11:27:16.352Z,40.58
2023-04-02T11:28:16.371Z,41.04
2023-04-02T11:29:16.457Z,40.66
2023-04-02T11:30:16.493Z,39.23
2023-04-02T11:31:16.600Z,39.97
2023-04-02T11:32:16.617Z,40.40
2023-04-02T11:33:18.679Z,41.89
2023-04-02T11:34:16.705Z,42.05
2023-04-02T11:35:16.752Z,42.00
2023-04-02T11:36:16.837Z,40.57
2023-04-02T11:37:16.836Z,40.54
2023-04-02T11:38:16.937Z,39.44
2023-04-02T11:39:17.811Z,41.46
2023-04-02T11:40:17.007Z,38.39
2023-04-02T11:41:17.073Z,40.57
2023-04-02T11:42:17.730Z,41.30
2023-04-02T11:43:17.167Z,41.24
2023-04-02T11:44:17.274Z,40.60
2023-04-02T11:45:20.233Z,40.37
2023-04-02T11:46:17.398Z,40.60
2023-04-02T11:47:17.293Z,40.57
2023-04-02T11:48:17.273Z,40.74
2023-04-02T11:49:17.264Z,42.63
2023-04-02T11:50:17.263Z,43.58
2023-04-02T11:51:18.362Z,40.71
2023-04-02T11:52:17.253Z,40.93
2023-04-02T11:53:17.248Z,40.99
2023-04-02T11:54:17.286Z,41.08
2023-04-02T11:55:17.247Z,41.68
2023-04-02T11:56:17.241Z,42.01
2023-04-02T11:57:18.077Z,42.23
2023-04-02T11:58:17.261Z,42.32
2023-04-02T11:59:17.233Z,42.46
2023-04-02T12:00:18.188Z,43.00
2023-04-02T12:01:17.219Z,43.10
2023-04-02T12:02:17.271Z,43.12
2023-04-02T12:03:17.268Z,41.81
2023-04-02T12:04:17.225Z,42.58
2023-04-02T12:05:17.278Z,42.51
2023-04-02T12:06:17.220Z,40.77
2023-04-02T12:07:17.238Z,40.91
2023-04-02T12:08:17.301Z,41.21
2023-04-02T12:09:17.350Z,42.41
2023-04-02T12:10:17.455Z,42.33
2023-04-02T12:11:17.483Z,39.87
2023-04-02T12:12:17.536Z,40.74
2023-04-02T12:13:17.582Z,42.10
2023-04-02T12:14:17.674Z,40.40
2023-04-02T12:15:17.705Z,41.68
2023-04-02T12:16:17.776Z,41.87
2023-04-02T12:17:17.828Z,41.32
2023-04-02T12:18:17.868Z,42.98
2023-04-02T12:19:17.909Z,40.67
2023-04-02T12:20:17.973Z,43.36
2023-04-02T12:21:18.776Z,43.50
2023-04-02T12:22:18.716Z,40.64
2023-04-02T12:23:18.133Z,41.22
2023-04-02T12:24:18.194Z,40.03
2023-04-02T12:25:18.257Z,41.68
2023-04-02T12:26:18.297Z,41.38
2023-04-02T12:27:19.293Z,40.55
2023-04-02T12:28:18.387Z,43.06
2023-04-02T12:29:19.215Z,41.80
2023-04-02T12:30:18.497Z,41.11
2023-04-02T12:31:18.544Z,43.44
2023-04-02T12:32:18.605Z,38.81
2023-04-02T12:33:18.643Z,42.90
2023-04-02T12:34:18.671Z,42.80
2023-04-02T12:35:18.724Z,42.29
2023-04-02T12:36:18.852Z,42.66
2023-04-02T12:37:18.842Z,42.87
2023-04-02T12:38:18.911Z,41.84
2023-04-02T12:39:19.733Z,42.29
2023-04-02T12:40:19.009Z,44.38
2023-04-02T12:41:19.062Z,41.93
2023-04-02T12:42:19.112Z,43.10
2023-04-02T12:43:19.154Z,42.03
2023-04-02T12:44:19.203Z,39.29
2023-04-02T12:45:19.258Z,41.69
2023-04-02T12:46:19.362Z,43.39
2023-04-02T12:47:19.347Z,44.23
2023-04-02T12:48:19.397Z,39.76
2023-04-02T12:49:19.444Z,41.46
2023-04-02T12:50:19.492Z,41.37
2023-04-02T12:51:19.531Z,40.68
2023-04-02T12:52:19.598Z,43.65
2023-04-02T12:53:19.628Z,42.39
2023-04-02T12:54:19.678Z,43.95
2023-04-02T12:55:19.725Z,40.96
2023-04-02T12:56:19.792Z,43.97
2023-04-02T12:57:19.858Z,42.32
2023-04-02T12:58:19.868Z,44.05
2023-04-02T12:59:20.280Z,41.85
2023-04-02T13:00:20.311Z,43.66
2023-04-02T13:01:20.326Z,42.88
2023-04-02T13:02:20.381Z,42.61
2023-04-02T13:03:20.863Z,41.56
2023-04-02T13:04:20.370Z,43.19
2023-04-02T13:05:20.328Z,40.57
2023-04-02T13:06:20.320Z,42.36
2023-04-02T13:07:20.340Z,42.73
2023-04-02T13:08:20.391Z,40.60
2023-04-02T13:09:21.328Z,41.36
2023-04-02T13:10:20.497Z,42.99
2023-04-02T13:11:20.543Z,42.82
2023-04-02T13:12:20.602Z,44.61
2023-04-02T13:13:20.652Z,41.41
2023-04-02T13:14:20.739Z,44.10
2023-04-02T13:15:20.751Z,42.51
2023-04-02T13:16:20.806Z,44.25
2023-04-02T13:17:20.851Z,42.56
2023-04-02T13:18:20.918Z,43.50
2023-04-02T13:19:21.334Z,44.27
2023-04-02T13:20:21.329Z,46.20
2023-04-02T13:21:21.354Z,44.50
2023-04-02T13:22:21.335Z,41.90
2023-04-02T13:23:21.333Z,44.36
2023-04-02T13:24:21.333Z,45.56
2023-04-02T13:25:21.333Z,46.57
2023-04-02T13:26:21.349Z,44.77
2023-04-02T13:27:21.345Z,44.99
2023-04-02T13:28:21.372Z,43.63
2023-04-02T13:29:21.426Z,44.08
2023-04-02T13:30:21.485Z,45.89
2023-04-02T13:31:21.523Z,44.36
2023-04-02T13:32:21.572Z,45.45
2023-04-02T13:33:21.642Z,44.61
2023-04-02T13:34:21.690Z,44.75
2023-04-02T13:35:21.717Z,44.86
2023-04-02T13:36:21.749Z,45.68
2023-04-02T13:37:21.827Z,45.38
2023-04-02T13:38:21.834Z,43.26
2023-04-02T13:39:21.878Z,47.47
2023-04-02T13:40:21.930Z,44.37
2023-04-02T13:41:21.953Z,45.55
2023-04-02T13:42:22.016Z,45.62